createdAt,value
2018-05-16T00:02:05.699Z,5.53
2018-05-16T00:04:37.134Z,6.30
2018-05-16T00:07:08.550Z,7.00
2018-05-16T00:09:41.006Z,6.53
2018-05-16T00:12:13.133Z,5.57
2018-05-16T00:14:44.514Z,6.27
2018-05-16T00:17:15.930Z,6.43
2018-05-16T00:19:47.343Z,7.90
2018-05-16T00:22:18.690Z,6.73
2018-05-16T00:24:50.103Z,6.17
2018-05-16T00:27:21.489Z,6.40
2018-05-16T00:29:53.637Z,6.03
2018-05-16T00:32:25.056Z,7.50
2018-05-16T00:34:56.431Z,6.30
2018-05-16T00:37:27.807Z,5.97
2018-05-16T00:39:59.612Z,6.33
2018-05-16T00:42:31.032Z,8.07
2018-05-16T00:45:02.392Z,6.17
2018-05-16T00:47:33.822Z,6.77
2018-05-16T00:50:05.207Z,5.90
2018-05-16T00:52:36.626Z,6.53
2018-05-16T00:55:08.771Z,6.03
2018-05-16T00:57:40.155Z,7.17
2018-05-16T01:00:12.346Z,8.27
2018-05-16T01:02:43.725Z,5.77
2018-05-16T01:05:15.906Z,5.33
2018-05-16T01:07:47.250Z,6.73
2018-05-16T01:10:19.425Z,5.27
2018-05-16T01:12:52.310Z,6.47
2018-05-16T01:15:23.743Z,5.30
2018-05-16T01:17:55.158Z,4.90
2018-05-16T01:20:26.578Z,5.13
2018-05-16T01:22:58.715Z,5.67
2018-05-16T01:25:30.133Z,6.77
2018-05-16T01:28:01.560Z,7.00
2018-05-16T01:30:33.792Z,4.80
2018-05-16T01:33:05.186Z,4.90
2018-05-16T01:35:36.558Z,4.83
2018-05-16T01:38:07.926Z,4.50
2018-05-16T01:40:39.301Z,5.63
2018-05-16T01:43:10.758Z,5.87
2018-05-16T01:45:42.189Z,4.30
2018-05-16T01:48:13.623Z,3.77
2018-05-16T01:50:44.993Z,4.30
2018-05-16T01:53:16.626Z,5.10
2018-05-16T01:55:48.122Z,4.07
2018-05-16T01:58:19.521Z,4.10
2018-05-16T02:00:50.878Z,3.80
2018-05-16T02:03:22.257Z,4.20
2018-05-16T02:05:53.633Z,4.03
2018-05-16T02:08:25.901Z,4.40
2018-05-16T02:10:58.040Z,4.57
2018-05-16T02:13:29.439Z,4.77
2018-05-16T02:16:01.760Z,4.37
2018-05-16T02:18:33.141Z,4.10
2018-05-16T02:21:04.514Z,3.60
2018-05-16T02:23:36.650Z,3.87
2018-05-16T02:26:08.007Z,3.33
2018-05-16T02:28:39.399Z,3.83
2018-05-16T02:31:12.642Z,4.77
2018-05-16T02:33:44.378Z,4.83
2018-05-16T02:36:15.753Z,4.57
2018-05-16T02:38:47.127Z,3.93
2018-05-16T02:41:19.857Z,3.87
2018-05-16T02:43:51.273Z,4.27
2018-05-16T02:46:22.668Z,4.23
2018-05-16T02:48:54.305Z,3.93
2018-05-16T02:51:25.686Z,4.43
2018-05-16T02:53:57.580Z,3.60
2018-05-16T02:56:29.798Z,3.97
2018-05-16T02:59:01.187Z,6.20
2018-05-16T03:01:32.530Z,3.80
2018-05-16T03:04:04.115Z,4.00
2018-05-16T03:06:35.499Z,5.23
2018-05-16T03:09:07.930Z,3.67
2018-05-16T03:11:39.525Z,3.43
2018-05-16T03:14:11.009Z,5.40
2018-05-16T03:16:42.446Z,4.97
2018-05-16T03:19:13.853Z,3.97
2018-05-16T03:21:45.279Z,6.93
2018-05-16T03:24:16.841Z,7.00
2018-05-16T03:26:49.030Z,3.73
2018-05-16T03:29:21.150Z,5.47
2018-05-16T03:31:52.653Z,4.60
2018-05-16T03:34:24.998Z,3.47
2018-05-16T03:36:56.375Z,5.00
2018-05-16T03:39:28.510Z,4.10
2018-05-16T03:42:01.735Z,4.40
2018-05-16T03:44:33.137Z,5.97
2018-05-16T03:47:04.551Z,4.00
2018-05-16T03:49:35.956Z,4.10
2018-05-16T03:52:07.411Z,3.47
2018-05-16T03:54:38.912Z,4.00
2018-05-16T03:57:27.078Z,4.00
2018-05-16T04:00:15.246Z,3.80
2018-05-16T04:03:04.901Z,4.70
2018-05-16T04:05:36.301Z,5.60
2018-05-16T04:08:08.454Z,6.00
2018-05-16T04:10:40.014Z,4.03
2018-05-16T04:13:12.277Z,4.13
2018-05-16T04:15:44.211Z,4.20
2018-05-16T04:18:15.618Z,4.17
2018-05-16T04:20:47.792Z,5.57
2018-05-16T04:23:20.737Z,8.93
2018-05-16T04:25:52.131Z,6.47
2018-05-16T04:28:24.586Z,6.30
2018-05-16T04:30:56.337Z,6.00
2018-05-16T04:33:27.849Z,5.17
2018-05-16T04:35:59.250Z,4.70
2018-05-16T04:38:31.397Z,5.73
2018-05-16T04:41:03.532Z,4.87
2018-05-16T04:43:34.902Z,5.87
2018-05-16T04:46:06.300Z,7.87
2018-05-16T04:48:37.698Z,6.87
2018-05-16T04:51:09.128Z,6.17
2018-05-16T04:53:40.506Z,5.03
2018-05-16T04:56:11.867Z,5.20
2018-05-16T04:58:44.037Z,6.27
2018-05-16T05:01:16.199Z,5.77
2018-05-16T05:03:47.596Z,8.13
2018-05-16T05:06:19.204Z,30.03
2018-05-16T05:08:52.294Z,11.00
2018-05-16T05:11:23.867Z,5.73
2018-05-16T05:13:55.278Z,5.13
2018-05-16T05:16:26.865Z,5.17
2018-05-16T05:18:58.827Z,5.43
2018-05-16T05:21:30.457Z,5.53
2018-05-16T05:24:01.824Z,5.30
2018-05-16T05:26:33.545Z,7.73
2018-05-16T05:29:04.995Z,6.33
2018-05-16T05:31:36.421Z,7.57
2018-05-16T05:34:08.270Z,5.27
2018-05-16T05:36:39.891Z,6.60
2018-05-16T05:39:11.311Z,5.87
2018-05-16T05:41:43.457Z,6.80
2018-05-16T05:44:15.612Z,5.80
2018-05-16T05:46:47.322Z,8.60
2018-05-16T05:49:20.271Z,6.07
2018-05-16T05:51:52.400Z,14.23
2018-05-16T05:54:23.858Z,4.77
2018-05-16T05:56:55.247Z,4.77
2018-05-16T05:59:26.941Z,8.77
2018-05-16T06:01:58.506Z,4.47
2018-05-16T06:04:29.910Z,5.37
2018-05-16T06:07:01.012Z,5.83
2018-05-16T06:09:32.455Z,5.50
2018-05-16T06:12:03.815Z,5.47
2018-05-16T06:14:35.253Z,8.30
2018-05-16T06:17:06.666Z,6.90
2018-05-16T06:19:38.870Z,6.80
2018-05-16T06:22:10.675Z,6.83
2018-05-16T06:24:42.458Z,7.47
2018-05-16T06:27:14.600Z,8.03
2018-05-16T06:29:46.232Z,7.17
2018-05-16T06:32:18.403Z,7.47
2018-05-16T06:34:49.779Z,6.33
2018-05-16T06:37:21.947Z,6.47
2018-05-16T06:39:53.545Z,6.67
2018-05-16T06:42:25.838Z,5.67
2018-05-16T06:44:57.297Z,5.77
2018-05-16T06:47:29.155Z,6.00
2018-05-16T06:50:00.689Z,7.93
2018-05-16T06:52:32.142Z,5.77
2018-05-16T06:55:03.619Z,6.87
2018-05-16T06:57:35.142Z,5.77
2018-05-16T07:00:06.710Z,5.13
2018-05-16T07:02:38.224Z,7.03
2018-05-16T07:05:11.146Z,7.07
2018-05-16T07:07:42.650Z,7.17
2018-05-16T07:10:14.795Z,9.07
2018-05-16T07:12:47.149Z,7.77
2018-05-16T07:15:18.954Z,6.93
2018-05-16T07:17:51.146Z,6.93
2018-05-16T07:20:23.381Z,7.67
2018-05-16T07:22:54.885Z,7.77
2018-05-16T07:25:26.461Z,7.97
2018-05-16T07:27:58.210Z,8.13
2018-05-16T07:30:30.129Z,10.63
2018-05-16T07:33:01.823Z,10.10
2018-05-16T07:35:33.237Z,8.60
2018-05-16T07:38:05.964Z,13.87
2018-05-16T07:40:37.377Z,8.43
2018-05-16T07:43:09.592Z,9.43
2018-05-16T07:45:41.948Z,9.80
2018-05-16T07:48:13.612Z,9.03
2018-05-16T07:50:45.442Z,11.53
2018-05-16T07:53:17.702Z,10.90
2018-05-16T07:55:49.106Z,8.17
2018-05-16T07:58:20.555Z,10.77
2018-05-16T08:00:52.294Z,9.00
2018-05-16T08:03:23.765Z,8.57
2018-05-16T08:05:55.332Z,7.73
2018-05-16T08:08:26.684Z,9.17
2018-05-16T08:10:58.199Z,8.93
2018-05-16T08:13:29.593Z,9.13
2018-05-16T08:16:01.355Z,9.30
2018-05-16T08:18:32.649Z,8.33
2018-05-16T08:21:04.070Z,7.50
2018-05-16T08:23:35.472Z,8.67
2018-05-16T08:26:06.876Z,9.03
2018-05-16T08:28:38.395Z,10.67
2018-05-16T08:31:10.095Z,7.20
2018-05-16T08:33:41.678Z,7.87
2018-05-16T08:36:13.063Z,11.43
2018-05-16T08:38:44.421Z,8.40
2018-05-16T08:41:15.847Z,8.63
2018-05-16T08:43:50.311Z,8.13
2018-05-16T08:46:21.911Z,7.83
2018-05-16T08:48:53.296Z,8.40
2018-05-16T08:51:24.729Z,8.00
2018-05-16T08:53:56.456Z,8.60
2018-05-16T08:56:28.633Z,9.27
2018-05-16T08:59:00.807Z,7.00
2018-05-16T09:01:34.181Z,17.77
2018-05-16T09:04:06.498Z,8.10
2018-05-16T09:06:38.265Z,7.37
2018-05-16T09:09:09.675Z,8.50
2018-05-16T09:11:41.839Z,6.97
2018-05-16T09:14:13.986Z,8.17
2018-05-16T09:16:46.149Z,9.83
2018-05-16T09:19:17.745Z,8.30
2018-05-16T09:21:49.094Z,7.93
2018-05-16T09:24:20.718Z,7.87
2018-05-16T09:26:53.247Z,7.53
2018-05-16T09:29:24.602Z,6.57
2018-05-16T09:31:56.161Z,7.63
2018-05-16T09:34:27.710Z,7.43
2018-05-16T09:37:00.035Z,7.00
2018-05-16T09:39:32.925Z,8.23
2018-05-16T09:42:05.114Z,6.97
2018-05-16T09:44:36.533Z,7.23
2018-05-16T09:47:07.891Z,6.00
2018-05-16T09:49:40.075Z,7.60
2018-05-16T09:52:11.524Z,6.93
2018-05-16T09:54:43.074Z,7.70
2018-05-16T09:57:14.529Z,7.63
2018-05-16T09:59:45.917Z,7.83
2018-05-16T10:02:16.651Z,7.73
2018-05-16T10:04:47.877Z,7.50
2018-05-16T10:07:19.462Z,7.87
2018-05-16T10:09:51.061Z,8.50
2018-05-16T10:12:23.192Z,8.27
2018-05-16T10:14:54.741Z,8.73
2018-05-16T10:17:26.184Z,8.03
2018-05-16T10:19:57.623Z,11.50
2018-05-16T10:22:29.075Z,7.53
2018-05-16T10:25:00.518Z,8.30
2018-05-16T10:27:31.918Z,8.23
2018-05-16T10:30:03.726Z,6.83
2018-05-16T10:32:35.859Z,8.07
2018-05-16T10:35:08.090Z,10.53
2018-05-16T10:37:39.514Z,7.70
2018-05-16T10:40:11.697Z,11.23
2018-05-16T10:42:43.107Z,10.23
2018-05-16T10:45:14.513Z,10.90
2018-05-16T10:47:45.969Z,9.90
2018-05-16T10:50:17.422Z,9.73
2018-05-16T10:52:48.857Z,8.60
2018-05-16T10:55:20.250Z,9.07
2018-05-16T10:57:52.538Z,8.70
2018-05-16T11:00:23.935Z,7.70
2018-05-16T11:02:56.429Z,7.40
2018-05-16T11:05:27.863Z,7.13
2018-05-16T11:07:59.233Z,8.03
2018-05-16T11:10:30.650Z,7.67
2018-05-16T11:13:03.031Z,6.23
2018-05-16T11:15:34.453Z,7.17
2018-05-16T11:18:06.605Z,7.43
2018-05-16T11:20:39.090Z,7.30
2018-05-16T11:23:10.519Z,8.73
2018-05-16T11:25:41.866Z,7.43
2018-05-16T11:28:14.246Z,9.57
2018-05-16T11:30:45.769Z,8.70
2018-05-16T11:33:17.142Z,6.47
2018-05-16T11:35:48.657Z,6.87
2018-05-16T11:38:20.137Z,6.87
2018-05-16T11:40:51.696Z,6.80
2018-05-16T11:43:24.027Z,10.47
2018-05-16T11:45:55.527Z,10.33
2018-05-16T11:48:26.945Z,7.63
2018-05-16T11:50:58.367Z,6.57
2018-05-16T11:53:30.175Z,9.10
2018-05-16T11:56:01.872Z,6.07
2018-05-16T11:58:33.274Z,6.90
2018-05-16T12:01:04.658Z,7.70
2018-05-16T12:03:36.314Z,5.70
2018-05-16T12:06:07.828Z,8.77
2018-05-16T12:08:40.066Z,7.00
2018-05-16T12:11:11.627Z,8.17
2018-05-16T12:13:43.742Z,6.03
2018-05-16T12:16:15.185Z,11.23
2018-05-16T12:18:46.887Z,7.70
2018-05-16T12:21:18.324Z,5.30
2018-05-16T12:23:49.793Z,5.43
2018-05-16T12:26:21.947Z,7.33
2018-05-16T12:28:53.468Z,6.40
2018-05-16T12:31:25.019Z,6.13
2018-05-16T12:33:56.589Z,8.03
2018-05-16T12:36:28.332Z,7.53
2018-05-16T12:39:00.821Z,6.17
2018-05-16T12:41:33.056Z,6.23
2018-05-16T12:44:04.777Z,7.23
2018-05-16T12:46:36.171Z,7.63
2018-05-16T12:49:08.890Z,8.63
2018-05-16T12:51:40.278Z,5.97
2018-05-16T12:54:11.693Z,7.67
2018-05-16T12:56:44.645Z,6.23
2018-05-16T12:59:16.853Z,6.60
2018-05-16T13:01:48.250Z,8.30
2018-05-16T13:04:19.986Z,9.77
2018-05-16T13:06:51.638Z,7.17
2018-05-16T13:09:23.832Z,8.70
2018-05-16T13:11:55.684Z,7.80
2018-05-16T13:14:27.634Z,8.32
2018-05-16T13:16:59.858Z,6.77
2018-05-16T13:19:31.235Z,9.73
2018-05-16T13:22:02.942Z,7.57
2018-05-16T13:24:34.329Z,6.60
2018-05-16T13:27:05.886Z,6.73
2018-05-16T13:29:37.250Z,10.00
2018-05-16T13:32:09.508Z,5.97
2018-05-16T13:34:40.919Z,6.80
2018-05-16T13:37:14.240Z,12.00
2018-05-16T13:39:45.773Z,13.70
2018-05-16T13:42:17.961Z,7.83
2018-05-16T13:44:49.393Z,8.03
2018-05-16T13:47:21.555Z,7.33
2018-05-16T13:49:52.904Z,6.13
2018-05-16T13:52:24.346Z,7.27
2018-05-16T13:54:56.167Z,7.20
2018-05-16T13:57:27.652Z,5.93
2018-05-16T13:59:59.059Z,6.93
2018-05-16T14:02:31.552Z,6.13
2018-05-16T14:05:03.727Z,6.37
2018-05-16T14:07:35.140Z,6.30
2018-05-16T14:10:06.201Z,5.07
2018-05-16T14:12:37.616Z,5.70
2018-05-16T14:15:09.027Z,5.97
2018-05-16T14:17:41.222Z,6.63
2018-05-16T14:20:13.515Z,15.43
2018-05-16T14:22:45.154Z,5.20
2018-05-16T14:25:16.826Z,6.00
2018-05-16T14:27:48.276Z,5.27
2018-05-16T14:30:19.692Z,7.20
2018-05-16T14:32:51.904Z,5.07
2018-05-16T14:35:23.351Z,5.47
2018-05-16T14:37:55.483Z,6.73
2018-05-16T14:40:26.867Z,5.03
2018-05-16T14:42:58.918Z,6.27
2018-05-16T14:45:31.179Z,6.07
2018-05-16T14:48:03.421Z,7.20
2018-05-16T14:50:34.975Z,6.13
2018-05-16T14:53:06.379Z,5.80
2018-05-16T14:55:37.922Z,7.13
2018-05-16T14:58:10.098Z,7.00
2018-05-16T15:00:42.237Z,9.03
2018-05-16T15:03:13.772Z,7.87
2018-05-16T15:05:45.237Z,11.63
2018-05-16T15:08:16.698Z,9.07
2018-05-16T15:10:48.117Z,9.10
2018-05-16T15:13:20.731Z,9.27
2018-05-16T15:15:52.122Z,8.40
2018-05-16T15:18:23.630Z,9.43
2018-05-16T15:20:55.122Z,8.57
2018-05-16T15:23:27.607Z,9.20
2018-05-16T15:25:59.764Z,9.50
2018-05-16T15:28:31.942Z,8.97
2018-05-16T15:31:03.347Z,8.27
2018-05-16T15:33:35.053Z,10.20
2018-05-16T15:36:06.479Z,8.97
2018-05-16T15:38:38.634Z,8.90
2018-05-16T15:41:10.027Z,10.73
2018-05-16T15:43:41.438Z,10.83
2018-05-16T15:46:12.835Z,11.63
2018-05-16T15:48:44.280Z,12.43
2018-05-16T15:51:15.750Z,13.07
2018-05-16T15:53:47.118Z,15.60
2018-05-16T15:56:18.541Z,14.97
2018-05-16T15:58:49.947Z,14.17
2018-05-16T16:01:21.388Z,13.97
2018-05-16T16:03:52.786Z,14.77
2018-05-16T16:06:24.177Z,15.30
2018-05-16T16:08:57.146Z,35.27
2018-05-16T16:11:28.644Z,17.93
2018-05-16T16:14:00.475Z,15.43
2018-05-16T16:16:32.093Z,14.37
2018-05-16T16:19:03.535Z,14.17
2018-05-16T16:21:35.216Z,13.90
2018-05-16T16:24:07.795Z,14.00
2018-05-16T16:26:39.526Z,13.80
2018-05-16T16:29:11.821Z,13.53
2018-05-16T16:31:43.300Z,14.50
2018-05-16T16:34:14.743Z,17.67
2018-05-16T16:36:46.113Z,13.87
2018-05-16T16:39:17.752Z,14.07
2018-05-16T16:41:49.158Z,14.83
2018-05-16T16:44:21.347Z,17.60
2018-05-16T16:46:52.820Z,17.40
2018-05-16T16:49:24.463Z,15.23
2018-05-16T16:51:55.994Z,16.07
2018-05-16T16:54:28.502Z,15.70
2018-05-16T16:57:00.061Z,13.93
2018-05-16T16:59:31.289Z,11.33
2018-05-16T17:02:02.810Z,12.90
2018-05-16T17:04:35.025Z,11.07
2018-05-16T17:07:06.880Z,13.70
2018-05-16T17:09:39.312Z,12.07
2018-05-16T17:12:11.565Z,16.83
2018-05-16T17:14:43.251Z,16.63
2018-05-16T17:17:15.424Z,16.27
2018-05-16T17:19:47.631Z,14.10
2018-05-16T17:22:19.045Z,15.30
2018-05-16T17:24:51.272Z,14.70
2018-05-16T17:27:22.750Z,14.53
2018-05-16T17:29:54.195Z,12.93
2018-05-16T17:32:26.365Z,14.33
2018-05-16T17:34:57.848Z,13.40
2018-05-16T17:37:30.004Z,12.73
2018-05-16T17:40:02.196Z,14.80
2018-05-16T17:42:34.781Z,13.37
2018-05-16T17:45:06.159Z,11.77
2018-05-16T17:47:37.706Z,12.67
2018-05-16T17:50:10.137Z,11.17
2018-05-16T17:52:42.712Z,11.60
2018-05-16T17:55:14.878Z,9.40
2018-05-16T17:57:47.095Z,10.70
2018-05-16T18:00:18.501Z,13.97
2018-05-16T18:02:50.717Z,10.33
2018-05-16T18:05:22.407Z,9.87
2018-05-16T18:07:53.897Z,9.67
2018-05-16T18:10:26.344Z,9.33
2018-05-16T18:27:08.204Z,6.37
2018-05-16T18:29:39.959Z,10.00
2018-05-16T18:32:11.380Z,7.43
2018-05-16T18:34:43.602Z,7.47
2018-05-16T18:37:15.089Z,8.27
2018-05-16T18:39:46.872Z,16.67
2018-05-16T18:42:18.477Z,6.27
2018-05-16T18:44:50.001Z,7.30
2018-05-16T18:47:21.508Z,9.00
2018-05-16T18:49:54.441Z,6.13
2018-05-16T18:52:25.793Z,7.23
2018-05-16T18:54:57.217Z,9.70
2018-05-16T18:57:29.652Z,6.87
2018-05-16T19:00:01.054Z,7.43
2018-05-16T19:02:32.477Z,9.50
2018-05-16T19:05:03.625Z,10.67
2018-05-16T19:07:35.015Z,6.90
2018-05-16T19:10:06.401Z,9.67
2018-05-16T19:12:38.111Z,10.73
2018-05-16T19:15:10.458Z,9.70
2018-05-16T19:17:41.875Z,6.63
2018-05-16T19:20:12.730Z,11.40
2018-05-16T19:22:44.085Z,9.10
2018-05-16T19:25:16.264Z,6.93
2018-05-16T19:27:47.723Z,6.53
2018-05-16T19:30:19.926Z,5.67
2018-05-16T19:32:51.250Z,6.77
2018-05-16T19:35:23.500Z,8.17
2018-05-16T19:37:55.730Z,9.40
2018-05-16T19:40:27.158Z,8.23
2018-05-16T19:43:00.237Z,9.70
2018-05-16T19:45:32.708Z,8.93
2018-05-16T19:48:04.134Z,11.07
2018-05-16T19:50:36.290Z,8.83
2018-05-16T19:53:07.906Z,10.20
2018-05-16T19:55:39.358Z,8.10
2018-05-16T19:58:10.731Z,9.90
2018-05-16T20:00:42.138Z,9.57
2018-05-16T20:03:13.654Z,9.47
2018-05-16T20:05:45.923Z,9.50
2018-05-16T20:08:17.415Z,9.10
2018-05-16T20:10:48.814Z,9.00
2018-05-16T20:13:20.224Z,13.97
2018-05-16T20:15:51.660Z,13.60
2018-05-16T20:18:23.852Z,9.13
2018-05-16T20:20:55.238Z,6.40
2018-05-16T20:23:27.487Z,8.20
2018-05-16T20:25:59.141Z,7.17
2018-05-16T20:28:30.791Z,9.40
2018-05-16T20:31:02.197Z,7.47
2018-05-16T20:33:33.651Z,8.57
2018-05-16T20:36:06.317Z,11.40
2018-05-16T20:38:37.792Z,7.87
2018-05-16T20:41:09.200Z,10.67
2018-05-16T20:43:40.614Z,9.77
2018-05-16T20:46:12.977Z,8.87
2018-05-16T20:48:44.386Z,10.40
2018-05-16T20:51:15.784Z,8.43
2018-05-16T20:53:48.157Z,12.63
2018-05-16T20:56:20.317Z,10.00
2018-05-16T20:58:52.081Z,10.37
2018-05-16T21:01:23.485Z,10.67
2018-05-16T21:03:55.833Z,9.90
2018-05-16T21:06:27.570Z,12.63
2018-05-16T21:08:59.990Z,8.10
2018-05-16T21:11:31.370Z,8.33
2018-05-16T21:14:02.950Z,8.07
2018-05-16T21:16:35.260Z,8.40
2018-05-16T21:19:07.120Z,7.63
2018-05-16T21:21:42.239Z,13.03
2018-05-16T21:24:13.991Z,11.37
2018-05-16T21:26:45.382Z,9.97
2018-05-16T21:29:16.779Z,11.37
2018-05-16T21:31:48.915Z,7.63
2018-05-16T21:34:20.486Z,7.17
2018-05-16T21:36:52.682Z,8.60
2018-05-16T21:39:25.133Z,9.63
2018-05-16T21:41:57.626Z,10.87
2018-05-16T21:44:29.853Z,7.90
2018-05-16T21:47:01.289Z,8.67
2018-05-16T21:49:32.634Z,10.03
2018-05-16T21:52:04.122Z,9.70
2018-05-16T21:54:35.690Z,12.37
2018-05-16T21:57:07.862Z,9.47
2018-05-16T21:59:39.576Z,7.60
2018-05-16T22:02:11.034Z,10.47
2018-05-16T22:04:42.355Z,11.50
2018-05-16T22:07:13.765Z,7.73
2018-05-16T22:09:45.163Z,7.33
2018-05-16T22:12:17.315Z,8.67
2018-05-16T22:14:50.726Z,7.47
2018-05-16T22:17:22.024Z,6.33
2018-05-16T22:19:53.486Z,9.03
2018-05-16T22:22:24.861Z,9.33
2018-05-16T22:24:56.251Z,7.17
2018-05-16T22:27:27.660Z,10.83
2018-05-16T22:29:59.436Z,7.13
2018-05-16T22:32:36.130Z,9.77
2018-05-16T22:35:12.979Z,10.07
2018-05-16T22:37:49.717Z,10.23
2018-05-16T22:40:26.489Z,7.57
2018-05-16T22:42:57.153Z,7.90
2018-05-16T22:45:29.354Z,11.93
2018-05-16T22:48:00.727Z,12.50
2018-05-16T22:50:32.344Z,8.87
2018-05-16T22:53:04.466Z,9.07
2018-05-16T22:55:35.906Z,8.47
2018-05-16T22:58:07.537Z,7.73
2018-05-16T23:00:38.914Z,8.60
2018-05-16T23:03:11.060Z,7.67
2018-05-16T23:05:42.480Z,8.83
2018-05-16T23:08:14.141Z,11.47
2018-05-16T23:10:45.536Z,13.13
2018-05-16T23:13:16.938Z,9.70
2018-05-16T23:15:49.384Z,10.27
2018-05-16T23:18:21.609Z,9.67
2018-05-16T23:20:58.246Z,10.23
2018-05-16T23:23:29.670Z,11.47
2018-05-16T23:26:01.844Z,9.73
2018-05-16T23:28:35.714Z,8.00
2018-05-16T23:31:06.775Z,7.33
2018-05-16T23:33:38.191Z,8.90
2018-05-16T23:36:10.299Z,10.70
2018-05-16T23:38:42.724Z,10.77
2018-05-16T23:41:14.142Z,8.50
2018-05-16T23:43:45.528Z,9.33
2018-05-16T23:46:16.938Z,6.80
2018-05-16T23:48:48.351Z,12.50
2018-05-16T23:51:19.758Z,11.73
2018-05-16T23:53:51.909Z,11.30
2018-05-16T23:56:24.828Z,11.73
2018-05-16T23:58:56.954Z,6.93
